sim
Sign-in with your pilot id or email,
or register
Callsign
Passwort

Schedule Details

Flight Number: RYR8969 (5)
Departure: Thessaloniki International Airport (LGTS) at 18:05
Arrival: Athens Eleftherios Venizelos (LGAV) at 19:05
Route: Ryanair Passenger Schedule. Enter filed route here before submitting Pirep.

Weather Information
Getting current METAR information for LGTS 211850Z 11004KT CAVOK 27/13 Q1017 NOSIG
Getting current METAR information for LGAV 211850Z 33004KT 300V020 CAVOK 26/10 Q1016 NOSIG

Schedule Frequency

Route Map